createdAt,value
2023-04-02T00:01:08.912Z,6.11
2023-04-02T00:04:09.203Z,5.99
2023-04-02T00:06:40.419Z,6.10
2023-04-02T00:09:27.815Z,6.11
2023-04-02T00:11:57.469Z,6.13
2023-04-02T00:14:33.707Z,6.01
2023-04-02T00:17:05.595Z,6.10
2023-04-02T00:19:39.669Z,6.07
2023-04-02T00:22:12.037Z,6.08
2023-04-02T00:24:42.549Z,6.00
2023-04-02T00:27:14.470Z,5.95
2023-04-02T00:29:51.993Z,6.01
2023-04-02T00:32:28.065Z,5.90
2023-04-02T00:34:58.300Z,5.90
2023-04-02T00:37:30.407Z,5.86
2023-04-02T00:40:07.336Z,5.94
2023-04-02T00:42:37.921Z,5.75
2023-04-02T00:45:22.719Z,5.82
2023-04-02T00:47:53.062Z,5.78
2023-04-02T00:50:29.031Z,5.81
2023-04-02T00:53:00.628Z,5.68
2023-04-02T00:55:37.408Z,5.80
2023-04-02T00:58:07.107Z,5.84
2023-04-02T01:03:35.329Z,5.70
2023-04-02T01:06:11.007Z,5.70
2023-04-02T01:08:57.262Z,5.78
2023-04-02T01:11:41.169Z,5.80
2023-04-02T01:14:20.687Z,5.76
2023-04-02T01:17:00.590Z,5.74
2023-04-02T01:19:58.619Z,5.72
2023-04-02T01:22:35.235Z,5.73
2023-04-02T01:25:06.638Z,5.56
2023-04-02T01:27:45.746Z,5.68
2023-04-02T01:30:18.389Z,5.70
2023-04-02T01:32:48.269Z,5.77
2023-04-02T01:35:18.164Z,5.71
2023-04-02T01:37:56.301Z,5.72
2023-04-02T01:40:36.965Z,5.80
2023-04-02T01:43:18.821Z,5.73
2023-04-02T01:45:50.896Z,5.72
2023-04-02T01:48:22.580Z,5.75
2023-04-02T01:51:06.900Z,5.64
2023-04-02T01:53:36.323Z,5.70
2023-04-02T01:56:07.591Z,5.61
2023-04-02T01:58:38.018Z,5.62
2023-04-02T02:01:16.681Z,5.56
2023-04-02T02:03:47.334Z,5.46
2023-04-02T02:06:19.750Z,5.47
2023-04-02T02:08:52.841Z,5.36
2023-04-02T02:11:26.399Z,5.47
2023-04-02T02:13:58.352Z,5.30
2023-04-02T02:16:32.139Z,5.32
2023-04-02T02:19:05.528Z,5.23
2023-04-02T02:21:42.147Z,5.21
2023-04-02T02:24:22.073Z,5.12
2023-04-02T02:26:57.216Z,5.24
2023-04-02T02:29:31.218Z,5.10
2023-04-02T02:32:04.847Z,5.07
2023-04-02T02:34:39.953Z,5.26
2023-04-02T02:37:15.584Z,5.07
2023-04-02T02:39:47.251Z,5.16
2023-04-02T02:42:20.974Z,5.17
2023-04-02T02:44:52.281Z,4.82
2023-04-02T02:47:28.446Z,5.05
2023-04-02T02:50:01.544Z,5.21
2023-04-02T02:52:33.391Z,5.18
2023-04-02T02:55:06.264Z,5.21
2023-04-02T02:57:41.701Z,5.07
2023-04-02T03:00:16.058Z,5.19
2023-04-02T03:02:50.181Z,5.18
2023-04-02T03:05:21.689Z,5.21
2023-04-02T03:07:53.888Z,5.27
2023-04-02T03:10:31.313Z,5.11
2023-04-02T03:13:08.631Z,5.02
2023-04-02T03:15:43.909Z,5.12
2023-04-02T03:18:20.765Z,5.08
2023-04-02T03:20:52.315Z,5.09
2023-04-02T03:23:27.320Z,5.12
2023-04-02T03:26:03.411Z,5.17
2023-04-02T03:28:35.776Z,5.14
2023-04-02T03:31:09.443Z,5.25
2023-04-02T03:33:44.989Z,5.30
2023-04-02T03:36:22.577Z,5.31
2023-04-02T03:38:56.737Z,5.25
2023-04-02T03:41:33.602Z,5.03
2023-04-02T03:44:07.798Z,4.98
2023-04-02T03:46:42.131Z,5.07
2023-04-02T03:49:21.660Z,4.96
2023-04-02T03:51:57.989Z,5.11
2023-04-02T03:54:27.372Z,4.99
2023-04-02T03:56:57.164Z,5.01
2023-04-02T03:59:37.799Z,4.88
2023-04-02T04:02:17.244Z,5.13
2023-04-02T04:04:51.467Z,4.96
2023-04-02T04:07:25.650Z,5.21
2023-04-02T04:09:56.526Z,5.24
2023-04-02T04:12:32.936Z,5.24
2023-04-02T04:15:08.727Z,5.20
2023-04-02T04:17:51.705Z,5.13
2023-04-02T04:20:26.915Z,5.18
2023-04-02T04:22:58.201Z,5.20
2023-04-02T04:25:34.192Z,5.22
2023-04-02T04:28:11.933Z,5.36
2023-04-02T04:30:51.795Z,5.31
2023-04-02T04:33:25.405Z,5.23
2023-04-02T04:36:00.870Z,5.24
2023-04-02T04:38:35.392Z,5.07
2023-04-02T04:41:08.692Z,5.14
2023-04-02T04:43:45.757Z,5.11
2023-04-02T04:46:19.435Z,5.10
2023-04-02T04:48:54.832Z,5.21
2023-04-02T04:51:30.725Z,5.18
2023-04-02T04:54:00.332Z,5.15
2023-04-02T04:56:32.526Z,5.13
2023-04-02T04:59:04.672Z,5.05
2023-04-02T05:01:40.472Z,5.13
2023-04-02T05:04:19.442Z,5.07
2023-04-02T05:06:58.040Z,4.99
2023-04-02T05:09:33.351Z,5.15
2023-04-02T05:12:10.554Z,5.05
2023-04-02T05:14:46.544Z,5.10
2023-04-02T05:17:21.270Z,5.14
2023-04-02T05:19:56.900Z,5.07
2023-04-02T05:22:36.104Z,5.00
2023-04-02T05:25:18.336Z,5.08
2023-04-02T05:27:53.045Z,5.16
2023-04-02T05:30:41.544Z,5.03
2023-04-02T05:33:22.665Z,4.85
2023-04-02T05:35:58.586Z,5.06
2023-04-02T05:38:33.270Z,5.02
2023-04-02T05:41:06.575Z,5.02
2023-04-02T05:43:39.719Z,5.11
2023-04-02T05:46:18.983Z,5.17
2023-04-02T05:48:54.464Z,5.26
2023-04-02T05:51:28.974Z,5.06
2023-04-02T05:54:04.095Z,5.07
2023-04-02T05:56:39.891Z,4.96
2023-04-02T05:59:14.947Z,5.19
2023-04-02T06:01:48.475Z,5.01
2023-04-02T06:04:25.548Z,5.06
2023-04-02T06:07:03.343Z,5.03
2023-04-02T06:09:41.756Z,4.82
2023-04-02T06:12:19.668Z,5.24
2023-04-02T06:14:49.516Z,5.20
2023-04-02T06:17:21.159Z,5.16
2023-04-02T06:19:51.751Z,5.21
2023-04-02T06:22:30.984Z,5.23
2023-04-02T06:25:08.524Z,5.29
2023-04-02T06:27:38.712Z,5.03
2023-04-02T06:30:18.022Z,5.19
2023-04-02T06:32:47.475Z,5.18
2023-04-02T06:35:17.512Z,5.23
2023-04-02T06:37:49.947Z,5.29
2023-04-02T06:40:36.408Z,5.11
2023-04-02T06:43:10.603Z,5.14
2023-04-02T06:45:44.821Z,5.27
2023-04-02T06:48:18.862Z,5.23
2023-04-02T06:50:53.753Z,5.04
2023-04-02T06:53:28.232Z,5.20
2023-04-02T06:56:07.011Z,5.23
2023-04-02T06:58:36.405Z,5.25
2023-04-02T07:01:06.133Z,5.33
2023-04-02T07:03:37.060Z,5.28
2023-04-02T07:06:07.110Z,5.27
2023-04-02T07:08:36.434Z,5.48
2023-04-02T07:11:08.546Z,5.20
2023-04-02T07:13:37.862Z,5.27
2023-04-02T07:16:08.461Z,5.38
2023-04-02T07:18:37.909Z,5.49
2023-04-02T07:21:07.904Z,5.60
2023-04-02T07:23:37.396Z,5.41
2023-04-02T07:26:10.301Z,5.35
2023-04-02T07:28:39.629Z,5.60
2023-04-02T07:31:18.395Z,5.45
2023-04-02T07:33:47.940Z,5.47
2023-04-02T07:36:19.138Z,5.58
2023-04-02T07:38:48.849Z,5.54
2023-04-02T07:41:22.214Z,5.59
2023-04-02T07:43:51.840Z,5.70
2023-04-02T07:46:21.812Z,5.62
2023-04-02T07:48:51.294Z,5.66
2023-04-02T07:51:22.967Z,5.72
2023-04-02T07:53:56.271Z,5.62
2023-04-02T07:56:28.769Z,5.69
2023-04-02T07:58:58.182Z,5.85
2023-04-02T08:01:29.675Z,5.84
2023-04-02T08:04:00.406Z,5.82
2023-04-02T08:06:29.809Z,5.86
2023-04-02T08:09:00.263Z,5.90
2023-04-02T08:11:32.233Z,5.94
2023-04-02T08:14:01.600Z,5.88
2023-04-02T08:16:31.052Z,5.92
2023-04-02T08:19:01.774Z,6.04
2023-04-02T08:21:31.912Z,6.12
2023-04-02T08:24:01.224Z,6.23
2023-04-02T08:26:33.975Z,6.35
2023-04-02T08:29:04.193Z,6.40
2023-04-02T08:31:33.546Z,6.50
2023-04-02T08:34:03.434Z,6.54
2023-04-02T08:36:36.672Z,6.70
2023-04-02T08:39:11.020Z,6.79
2023-04-02T08:41:47.772Z,6.82
2023-04-02T08:44:38.650Z,6.88
2023-04-02T08:47:10.966Z,7.00
2023-04-02T08:49:46.104Z,7.14
2023-04-02T08:52:24.145Z,7.21
2023-04-02T08:54:56.330Z,7.29
2023-04-02T08:57:36.852Z,7.41
2023-04-02T09:00:12.067Z,7.23
2023-04-02T09:02:46.115Z,7.24
2023-04-02T09:05:21.623Z,7.14
2023-04-02T09:07:53.418Z,7.26
2023-04-02T09:10:23.743Z,7.25
2023-04-02T09:12:58.655Z,7.38
2023-04-02T09:15:34.521Z,7.40
2023-04-02T09:18:14.983Z,7.34
2023-04-02T09:20:45.047Z,7.58
2023-04-02T09:23:19.508Z,7.60
2023-04-02T09:26:03.410Z,7.74
2023-04-02T09:28:36.417Z,7.54
2023-04-02T09:31:15.323Z,7.44
2023-04-02T09:33:47.142Z,7.56
2023-04-02T09:36:29.145Z,7.68
2023-04-02T09:39:03.288Z,7.66
2023-04-02T09:41:34.596Z,7.80
2023-04-02T09:44:26.901Z,7.79
2023-04-02T09:46:59.709Z,7.95
2023-04-02T09:49:32.017Z,7.93
2023-04-02T09:52:29.445Z,7.96
2023-04-02T09:55:28.042Z,8.08
2023-04-02T09:58:14.807Z,8.18
2023-04-02T10:00:53.214Z,8.22
2023-04-02T10:03:27.372Z,7.84
2023-04-02T10:06:12.538Z,8.01
2023-04-02T10:08:44.086Z,8.17
2023-04-02T10:11:17.014Z,8.41
2023-04-02T10:13:53.865Z,8.33
2023-04-02T10:16:33.477Z,8.48
2023-04-02T10:19:09.316Z,8.43
2023-04-02T10:21:42.540Z,8.30
2023-04-02T10:24:15.647Z,8.52
2023-04-02T10:26:53.989Z,8.24
2023-04-02T10:29:41.728Z,8.42
2023-04-02T10:32:19.364Z,8.41
2023-04-02T10:34:56.866Z,8.35
2023-04-02T10:37:48.109Z,8.53
2023-04-02T10:40:23.917Z,8.41
2023-04-02T10:43:01.958Z,8.51
2023-04-02T10:45:44.091Z,8.51
2023-04-02T10:48:28.184Z,8.49
2023-04-02T10:51:03.376Z,8.56
2023-04-02T10:53:40.843Z,8.66
2023-04-02T10:56:14.877Z,8.88
2023-04-02T10:58:57.440Z,8.95
2023-04-02T11:01:29.969Z,9.07
2023-04-02T11:04:05.903Z,8.99
2023-04-02T11:06:44.554Z,8.96
2023-04-02T11:09:20.617Z,8.88
2023-04-02T11:11:53.781Z,9.08
2023-04-02T11:14:27.660Z,9.18
2023-04-02T11:16:59.389Z,9.12
2023-04-02T11:19:33.051Z,8.99
2023-04-02T11:22:06.790Z,9.18
2023-04-02T11:24:45.257Z,9.05
2023-04-02T11:27:25.750Z,9.25
2023-04-02T11:30:00.177Z,9.18
2023-04-02T11:32:34.437Z,9.15
2023-04-02T11:35:28.080Z,9.21
2023-04-02T11:37:59.090Z,9.29
2023-04-02T11:40:45.588Z,9.30
2023-04-02T11:43:45.602Z,9.49
2023-04-02T11:46:43.149Z,9.39
2023-04-02T11:49:42.088Z,9.52
2023-04-02T11:52:30.118Z,9.31
2023-04-02T11:55:03.741Z,9.43
2023-04-02T11:57:58.472Z,9.19
2023-04-02T12:00:44.227Z,9.22
2023-04-02T12:03:33.971Z,9.05
2023-04-02T12:06:10.840Z,9.11
2023-04-02T12:08:57.955Z,9.03
2023-04-02T12:11:36.171Z,8.88
2023-04-02T12:14:30.125Z,9.14
2023-04-02T12:17:02.711Z,9.33
2023-04-02T12:19:34.190Z,9.28
2023-04-02T12:22:04.294Z,9.43
2023-04-02T12:24:34.264Z,9.21
2023-04-02T12:27:15.727Z,9.29
2023-04-02T12:29:45.752Z,9.34
2023-04-02T12:32:29.571Z,9.41
2023-04-02T12:35:01.647Z,9.17
2023-04-02T12:37:32.444Z,9.30
2023-04-02T12:40:07.273Z,9.42
2023-04-02T12:42:39.150Z,9.32
2023-04-02T12:45:09.716Z,9.14
2023-04-02T12:47:47.964Z,9.31
2023-04-02T12:50:19.335Z,9.37
2023-04-02T12:52:50.716Z,9.38
2023-04-02T12:55:23.329Z,9.56
2023-04-02T12:57:58.080Z,9.50
2023-04-02T13:00:38.673Z,9.26
2023-04-02T13:03:22.374Z,9.29
2023-04-02T13:05:56.334Z,9.34
2023-04-02T13:08:28.462Z,9.28
2023-04-02T13:11:00.476Z,9.42
2023-04-02T13:13:34.566Z,9.12
2023-04-02T13:16:07.217Z,9.20
2023-04-02T13:18:41.207Z,9.16
2023-04-02T13:21:28.507Z,9.28
2023-04-02T13:23:58.234Z,9.23
2023-04-02T13:26:29.116Z,9.19
2023-04-02T13:29:00.051Z,9.32
2023-04-02T13:31:30.204Z,9.34
2023-04-02T13:34:02.309Z,9.36
2023-04-02T13:36:32.110Z,9.41
2023-04-02T13:39:01.631Z,9.48
2023-04-02T13:41:32.983Z,9.43
2023-04-02T13:44:04.607Z,9.30
2023-04-02T13:46:35.990Z,9.36
2023-04-02T13:49:07.892Z,9.22
2023-04-02T13:51:39.663Z,9.37
2023-04-02T13:54:14.033Z,9.20
2023-04-02T13:56:43.378Z,9.36
2023-04-02T13:59:12.862Z,9.42
2023-04-02T14:01:43.362Z,9.34
2023-04-02T14:04:18.924Z,9.40
2023-04-02T14:07:04.590Z,9.52
2023-04-02T14:09:43.632Z,9.29
2023-04-02T14:12:24.876Z,9.06
2023-04-02T14:15:08.151Z,9.20
2023-04-02T14:17:51.365Z,9.16
2023-04-02T14:20:35.444Z,9.12
2023-04-02T14:23:25.587Z,9.10
2023-04-02T14:26:08.858Z,9.15
2023-04-02T14:28:47.637Z,9.26
2023-04-02T14:31:25.788Z,9.46
2023-04-02T14:34:04.576Z,9.45
2023-04-02T14:36:45.912Z,9.13
2023-04-02T14:39:24.097Z,9.32
2023-04-02T14:42:00.676Z,9.24
2023-04-02T14:44:34.788Z,9.29
2023-04-02T14:47:16.125Z,9.45
2023-04-02T14:49:49.680Z,9.42
2023-04-02T14:52:24.212Z,9.49
2023-04-02T14:54:57.734Z,9.39
2023-04-02T14:57:30.733Z,9.31
2023-04-02T15:00:04.774Z,9.43
2023-04-02T15:02:44.984Z,9.53
2023-04-02T15:05:20.535Z,9.42
2023-04-02T15:07:56.867Z,9.45
2023-04-02T15:10:31.101Z,9.59
2023-04-02T15:13:03.183Z,9.26
2023-04-02T15:15:41.499Z,9.23
2023-04-02T15:18:16.368Z,9.14
2023-04-02T15:20:55.105Z,9.26
2023-04-02T15:23:37.158Z,9.28
2023-04-02T15:26:19.670Z,9.13
2023-04-02T15:28:53.492Z,9.01
2023-04-02T15:31:28.769Z,9.29
2023-04-02T15:34:08.917Z,9.26
2023-04-02T15:37:16.217Z,9.14
2023-04-02T15:40:01.691Z,9.17
2023-04-02T15:42:33.254Z,8.82
2023-04-02T15:45:24.902Z,9.06
2023-04-02T15:48:15.151Z,9.21
2023-04-02T15:50:55.592Z,9.25
2023-04-02T15:53:43.618Z,9.30
2023-04-02T15:56:26.660Z,8.94
2023-04-02T15:59:11.220Z,9.11
2023-04-02T16:01:51.224Z,9.12
2023-04-02T16:04:42.016Z,9.10
2023-04-02T16:07:27.341Z,9.17
2023-04-02T16:10:08.427Z,9.14
2023-04-02T16:12:42.038Z,9.25
2023-04-02T16:15:23.728Z,9.10
2023-04-02T16:17:58.971Z,9.09
2023-04-02T16:20:33.724Z,9.04
2023-04-02T16:23:07.641Z,9.09
2023-04-02T16:25:45.795Z,9.06
2023-04-02T16:28:26.540Z,9.06
2023-04-02T16:31:03.843Z,8.99
2023-04-02T16:33:42.849Z,9.06
2023-04-02T16:36:27.347Z,8.98
2023-04-02T16:39:02.000Z,8.87
2023-04-02T16:41:43.086Z,8.94
2023-04-02T16:44:27.916Z,8.82
2023-04-02T16:47:06.784Z,8.94
2023-04-02T16:49:40.980Z,8.79
2023-04-02T16:52:25.428Z,8.90
2023-04-02T16:55:12.108Z,8.70
2023-04-02T16:57:53.365Z,8.79
2023-04-02T17:00:31.521Z,9.01
2023-04-02T17:03:17.797Z,9.02
2023-04-02T17:05:58.144Z,8.79
2023-04-02T17:08:29.481Z,8.85
2023-04-02T17:11:03.389Z,8.74
2023-04-02T17:13:41.257Z,8.81
2023-04-02T17:16:21.852Z,8.87
2023-04-02T17:18:54.321Z,8.80
2023-04-02T17:21:27.814Z,8.73
2023-04-02T17:23:59.958Z,8.77
2023-04-02T17:26:31.990Z,8.71
2023-04-02T17:29:08.891Z,8.61
2023-04-02T17:31:42.125Z,8.61
2023-04-02T17:34:16.353Z,8.57
2023-04-02T17:36:51.964Z,8.40
2023-04-02T17:39:29.693Z,8.55
2023-04-02T17:42:07.549Z,8.32
2023-04-02T17:44:58.891Z,8.44
2023-04-02T17:47:43.577Z,8.36
2023-04-02T17:50:35.931Z,8.56
2023-04-02T17:53:13.348Z,8.50
2023-04-02T17:55:51.760Z,8.44
2023-04-02T17:58:35.880Z,8.36
2023-04-02T18:01:09.815Z,8.02
2023-04-02T18:04:01.253Z,8.16
2023-04-02T18:06:39.666Z,8.21
2023-04-02T18:09:25.365Z,8.24
2023-04-02T18:12:04.890Z,8.07
2023-04-02T18:14:48.218Z,8.33
2023-04-02T18:17:26.195Z,8.11
2023-04-02T18:20:06.480Z,8.06
2023-04-02T18:22:43.589Z,8.01
2023-04-02T18:25:35.543Z,8.09
2023-04-02T18:28:17.913Z,8.00
2023-04-02T18:30:56.637Z,8.00
2023-04-02T18:33:42.606Z,7.86
2023-04-02T18:36:21.800Z,7.67
2023-04-02T18:39:00.130Z,7.90
2023-04-02T18:41:45.197Z,7.79
2023-04-02T18:44:32.286Z,7.67
2023-04-02T18:47:09.079Z,7.61
2023-04-02T18:49:41.812Z,7.77
2023-04-02T18:52:16.937Z,7.73
2023-04-02T18:54:51.034Z,7.71
2023-04-02T18:57:25.719Z,7.67
2023-04-02T19:00:00.205Z,7.60
2023-04-02T19:02:41.803Z,7.66
2023-04-02T19:05:23.014Z,7.60
2023-04-02T19:08:04.746Z,7.45
2023-04-02T19:10:36.389Z,7.27
2023-04-02T19:13:08.205Z,7.43
2023-04-02T19:15:46.284Z,7.59
2023-04-02T19:18:25.901Z,7.46
2023-04-02T19:21:00.429Z,7.57
2023-04-02T19:23:52.082Z,7.59
2023-04-02T19:26:26.764Z,7.66
2023-04-02T19:29:01.571Z,7.69
2023-04-02T19:31:41.799Z,7.56
2023-04-02T19:34:21.049Z,7.42
2023-04-02T19:36:55.393Z,7.69
2023-04-02T19:39:46.907Z,7.65
2023-04-02T19:42:28.137Z,7.55
2023-04-02T19:45:01.251Z,7.53
2023-04-02T19:47:30.823Z,7.56
2023-04-02T19:50:00.695Z,7.53
2023-04-02T19:52:30.044Z,7.48
2023-04-02T19:55:06.150Z,7.60
2023-04-02T19:57:35.785Z,7.43
2023-04-02T20:00:06.676Z,7.47
2023-04-02T20:02:36.338Z,7.53
2023-04-02T20:05:05.740Z,7.54
2023-04-02T20:07:35.081Z,7.55
2023-04-02T20:10:12.881Z,7.44
2023-04-02T20:12:42.468Z,7.42
2023-04-02T20:15:12.957Z,7.36
2023-04-02T20:17:42.811Z,7.25
2023-04-02T20:20:13.738Z,7.35
2023-04-02T20:22:43.107Z,7.37
2023-04-02T20:25:15.140Z,7.15
2023-04-02T20:27:44.755Z,7.38
2023-04-02T20:30:15.121Z,7.42
2023-04-02T20:32:44.586Z,7.60
2023-04-02T20:35:13.999Z,7.44
2023-04-02T20:37:46.083Z,7.39
2023-04-02T20:40:18.352Z,7.52
2023-04-02T20:42:47.998Z,7.57
2023-04-02T20:45:17.571Z,7.51
2023-04-02T20:47:47.633Z,7.34
2023-04-02T20:50:17.726Z,7.52
2023-04-02T20:52:47.056Z,7.53
2023-04-02T20:55:19.048Z,7.35
2023-04-02T20:57:48.750Z,7.55
2023-04-02T21:00:19.174Z,7.46
2023-04-02T21:02:48.486Z,7.26
2023-04-02T21:05:18.123Z,7.41
2023-04-02T21:07:48.713Z,7.24
2023-04-02T21:10:21.354Z,7.35
2023-04-02T21:12:50.716Z,7.32
2023-04-02T21:15:20.442Z,7.35
2023-04-02T21:17:49.804Z,7.32
2023-04-02T21:20:22.011Z,7.27
2023-04-02T21:22:51.351Z,7.32
2023-04-02T21:25:23.285Z,7.29
2023-04-02T21:27:52.592Z,7.35
2023-04-02T21:30:22.183Z,7.41
2023-04-02T21:32:51.522Z,7.36
2023-04-02T21:35:20.840Z,7.35
2023-04-02T21:37:50.162Z,7.24
2023-04-02T21:40:19.637Z,7.16
2023-04-02T21:42:51.557Z,7.20
2023-04-02T21:45:21.054Z,7.26
2023-04-02T21:47:50.585Z,7.18
2023-04-02T21:50:20.086Z,7.24
2023-04-02T21:52:49.434Z,7.24
2023-04-02T21:55:18.902Z,7.18
2023-04-02T21:57:56.664Z,7.18
2023-04-02T22:00:28.421Z,7.08
2023-04-02T22:03:00.979Z,7.06
2023-04-02T22:05:33.197Z,7.11
2023-04-02T22:08:03.503Z,7.20
2023-04-02T22:10:32.852Z,7.21
2023-04-02T22:13:04.771Z,7.17
2023-04-02T22:15:35.724Z,7.21
2023-04-02T22:18:05.278Z,7.31
2023-04-02T22:20:34.793Z,7.27
2023-04-02T22:23:04.455Z,7.35
2023-04-02T22:25:35.293Z,7.36
2023-04-02T22:28:07.674Z,7.41
2023-04-02T22:30:37.212Z,7.36
2023-04-02T22:33:07.047Z,7.35
2023-04-02T22:35:36.468Z,7.38
2023-04-02T22:38:08.538Z,7.36
2023-04-02T22:40:38.400Z,7.36
2023-04-02T22:43:10.356Z,7.38
2023-04-02T22:45:39.728Z,7.37
2023-04-02T22:48:09.749Z,7.31
2023-04-02T22:50:41.193Z,7.21
2023-04-02T22:53:12.016Z,7.23
2023-04-02T22:55:41.556Z,7.26
2023-04-02T22:58:13.658Z,7.26
2023-04-02T23:00:43.768Z,7.24
2023-04-02T23:03:13.139Z,7.15
2023-04-02T23:05:42.694Z,7.21
2023-04-02T23:08:12.435Z,7.16
2023-04-02T23:10:41.958Z,7.20
2023-04-02T23:13:16.270Z,7.22
2023-04-02T23:15:46.676Z,7.18
2023-04-02T23:18:16.441Z,7.22
2023-04-02T23:20:48.394Z,7.15
2023-04-02T23:23:17.853Z,7.19
2023-04-02T23:25:47.175Z,7.10
2023-04-02T23:28:19.140Z,7.17
2023-04-02T23:30:48.478Z,7.02
2023-04-02T23:33:17.818Z,7.00
2023-04-02T23:35:47.185Z,6.95
2023-04-02T23:38:16.561Z,6.95
2023-04-02T23:40:45.898Z,6.94
2023-04-02T23:43:15.212Z,6.96
2023-04-02T23:45:49.941Z,6.92
2023-04-02T23:48:20.359Z,6.85
2023-04-02T23:50:49.691Z,6.87
2023-04-02T23:53:20.081Z,6.85
2023-04-02T23:55:49.916Z,6.83
2023-04-02T23:58:19.265Z,6.80
